sensor_id;sensor_type;location;lat;lon;timestamp;P1;durP1;ratioP1;P2;durP2;ratioP2
48241;SDS011;34041;51.812;4.622;2024-03-06T00:02:10;30.60;;;21.05;;
48241;SDS011;34041;51.812;4.622;2024-03-06T00:05:10;28.50;;;19.90;;
48241;SDS011;34041;51.812;4.622;2024-03-06T00:08:10;30.20;;;22.47;;
48241;SDS011;34041;51.812;4.622;2024-03-06T00:11:11;26.02;;;19.98;;
48241;SDS011;34041;51.812;4.622;2024-03-06T00:14:11;25.45;;;19.30;;
48241;SDS011;34041;51.812;4.622;2024-03-06T00:17:12;26.25;;;20.75;;
48241;SDS011;34041;51.812;4.622;2024-03-06T00:20:12;24.23;;;20.13;;
48241;SDS011;34041;51.812;4.622;2024-03-06T00:23:14;24.77;;;19.92;;
48241;SDS011;34041;51.812;4.622;2024-03-06T00:26:14;30.33;;;21.63;;
48241;SDS011;34041;51.812;4.622;2024-03-06T00:29:14;27.85;;;20.23;;
48241;SDS011;34041;51.812;4.622;2024-03-06T00:32:15;26.63;;;20.23;;
48241;SDS011;34041;51.812;4.622;2024-03-06T00:35:15;31.73;;;23.15;;
48241;SDS011;34041;51.812;4.622;2024-03-06T00:38:15;26.58;;;23.08;;
48241;SDS011;34041;51.812;4.622;2024-03-06T00:41:15;29.15;;;22.02;;
48241;SDS011;34041;51.812;4.622;2024-03-06T00:44:16;29.00;;;23.17;;
48241;SDS011;34041;51.812;4.622;2024-03-06T00:47:17;26.55;;;19.42;;
48241;SDS011;34041;51.812;4.622;2024-03-06T00:50:17;36.53;;;20.85;;
48241;SDS011;34041;51.812;4.622;2024-03-06T00:53:18;28.27;;;22.48;;
48241;SDS011;34041;51.812;4.622;2024-03-06T00:56:18;25.87;;;21.33;;
48241;SDS011;34041;51.812;4.622;2024-03-06T00:59:18;29.98;;;24.27;;
48241;SDS011;34041;51.812;4.622;2024-03-06T01:02:19;33.07;;;25.53;;
48241;SDS011;34041;51.812;4.622;2024-03-06T01:05:19;30.33;;;24.30;;
48241;SDS011;34041;51.812;4.622;2024-03-06T01:08:19;28.73;;;20.87;;
48241;SDS011;34041;51.812;4.622;2024-03-06T01:11:19;25.65;;;20.60;;
48241;SDS011;34041;51.812;4.622;2024-03-06T01:14:20;27.98;;;21.92;;
48241;SDS011;34041;51.812;4.622;2024-03-06T01:17:20;31.13;;;23.73;;
48241;SDS011;34041;51.812;4.622;2024-03-06T01:20:20;38.60;;;25.17;;
48241;SDS011;34041;51.812;4.622;2024-03-06T01:23:20;30.27;;;24.67;;
48241;SDS011;34041;51.812;4.622;2024-03-06T01:26:20;31.33;;;24.53;;
48241;SDS011;34041;51.812;4.622;2024-03-06T01:29:21;31.53;;;23.73;;
48241;SDS011;34041;51.812;4.622;2024-03-06T01:32:21;29.75;;;23.05;;
48241;SDS011;34041;51.812;4.622;2024-03-06T01:35:21;29.27;;;24.75;;
48241;SDS011;34041;51.812;4.622;2024-03-06T01:38:23;31.98;;;25.35;;
48241;SDS011;34041;51.812;4.622;2024-03-06T01:41:23;37.30;;;29.13;;
48241;SDS011;34041;51.812;4.622;2024-03-06T01:44:25;33.22;;;27.63;;
48241;SDS011;34041;51.812;4.622;2024-03-06T01:47:25;33.28;;;27.15;;
48241;SDS011;34041;51.812;4.622;2024-03-06T01:50:25;36.38;;;27.15;;
48241;SDS011;34041;51.812;4.622;2024-03-06T01:53:26;35.75;;;28.38;;
48241;SDS011;34041;51.812;4.622;2024-03-06T01:56:27;37.10;;;28.38;;
48241;SDS011;34041;51.812;4.622;2024-03-06T01:59:28;36.97;;;30.17;;
48241;SDS011;34041;51.812;4.622;2024-03-06T02:02:28;37.95;;;29.85;;
48241;SDS011;34041;51.812;4.622;2024-03-06T02:05:29;37.38;;;28.85;;
48241;SDS011;34041;51.812;4.622;2024-03-06T02:08:31;36.05;;;27.48;;
48241;SDS011;34041;51.812;4.622;2024-03-06T02:11:32;36.65;;;29.27;;
48241;SDS011;34041;51.812;4.622;2024-03-06T02:14:32;36.20;;;29.90;;
48241;SDS011;34041;51.812;4.622;2024-03-06T02:17:33;39.83;;;28.10;;
48241;SDS011;34041;51.812;4.622;2024-03-06T02:20:34;38.53;;;29.92;;
48241;SDS011;34041;51.812;4.622;2024-03-06T02:23:34;40.38;;;29.15;;
48241;SDS011;34041;51.812;4.622;2024-03-06T02:26:35;46.88;;;31.77;;
48241;SDS011;34041;51.812;4.622;2024-03-06T02:29:35;39.88;;;31.08;;
48241;SDS011;34041;51.812;4.622;2024-03-06T02:32:35;33.53;;;27.23;;
48241;SDS011;34041;51.812;4.622;2024-03-06T02:35:36;35.17;;;27.83;;
48241;SDS011;34041;51.812;4.622;2024-03-06T02:38:36;37.63;;;29.60;;
48241;SDS011;34041;51.812;4.622;2024-03-06T02:41:36;38.08;;;30.65;;
48241;SDS011;34041;51.812;4.622;2024-03-06T02:44:37;36.50;;;27.55;;
48241;SDS011;34041;51.812;4.622;2024-03-06T02:47:37;40.00;;;28.77;;
48241;SDS011;34041;51.812;4.622;2024-03-06T02:50:37;39.40;;;30.27;;
48241;SDS011;34041;51.812;4.622;2024-03-06T02:53:37;38.53;;;30.33;;
48241;SDS011;34041;51.812;4.622;2024-03-06T02:56:37;42.00;;;30.93;;
48241;SDS011;34041;51.812;4.622;2024-03-06T02:59:39;35.88;;;28.58;;
48241;SDS011;34041;51.812;4.622;2024-03-06T03:02:39;39.13;;;30.40;;
48241;SDS011;34041;51.812;4.622;2024-03-06T03:05:40;41.92;;;30.73;;
48241;SDS011;34041;51.812;4.622;2024-03-06T03:08:40;34.53;;;27.60;;
48241;SDS011;34041;51.812;4.622;2024-03-06T03:11:42;37.20;;;27.83;;
48241;SDS011;34041;51.812;4.622;2024-03-06T03:14:42;41.88;;;30.67;;
48241;SDS011;34041;51.812;4.622;2024-03-06T03:17:43;40.88;;;29.58;;
48241;SDS011;34041;51.812;4.622;2024-03-06T03:20:43;36.30;;;29.23;;
48241;SDS011;34041;51.812;4.622;2024-03-06T03:23:43;39.05;;;29.90;;
48241;SDS011;34041;51.812;4.622;2024-03-06T03:26:43;41.28;;;31.38;;
48241;SDS011;34041;51.812;4.622;2024-03-06T03:29:44;38.43;;;29.83;;
48241;SDS011;34041;51.812;4.622;2024-03-06T03:32:44;40.10;;;31.90;;
48241;SDS011;34041;51.812;4.622;2024-03-06T03:35:45;39.92;;;30.05;;
48241;SDS011;34041;51.812;4.622;2024-03-06T03:38:45;43.23;;;32.17;;
48241;SDS011;34041;51.812;4.622;2024-03-06T03:41:46;38.17;;;28.95;;
48241;SDS011;34041;51.812;4.622;2024-03-06T03:44:46;39.70;;;32.47;;
48241;SDS011;34041;51.812;4.622;2024-03-06T03:47:46;43.67;;;34.73;;
48241;SDS011;34041;51.812;4.622;2024-03-06T03:50:47;37.97;;;30.53;;
48241;SDS011;34041;51.812;4.622;2024-03-06T03:53:47;38.83;;;30.67;;
48241;SDS011;34041;51.812;4.622;2024-03-06T03:56:50;38.88;;;29.23;;
48241;SDS011;34041;51.812;4.622;2024-03-06T03:59:51;37.05;;;29.50;;
48241;SDS011;34041;51.812;4.622;2024-03-06T04:02:51;41.25;;;29.08;;
48241;SDS011;34041;51.812;4.622;2024-03-06T04:05:51;39.17;;;29.40;;
48241;SDS011;34041;51.812;4.622;2024-03-06T04:08:52;35.70;;;29.20;;
48241;SDS011;34041;51.812;4.622;2024-03-06T04:11:52;43.67;;;30.73;;
48241;SDS011;34041;51.812;4.622;2024-03-06T04:14:52;37.80;;;30.13;;
48241;SDS011;34041;51.812;4.622;2024-03-06T04:17:53;38.85;;;30.23;;
48241;SDS011;34041;51.812;4.622;2024-03-06T04:20:53;42.10;;;32.70;;
48241;SDS011;34041;51.812;4.622;2024-03-06T04:23:53;39.65;;;29.33;;
48241;SDS011;34041;51.812;4.622;2024-03-06T04:26:53;37.90;;;29.85;;
48241;SDS011;34041;51.812;4.622;2024-03-06T04:29:54;37.40;;;28.63;;
48241;SDS011;34041;51.812;4.622;2024-03-06T04:32:54;36.00;;;30.80;;
48241;SDS011;34041;51.812;4.622;2024-03-06T04:35:54;36.13;;;28.87;;
48241;SDS011;34041;51.812;4.622;2024-03-06T04:38:54;39.30;;;28.93;;
48241;SDS011;34041;51.812;4.622;2024-03-06T04:41:55;40.05;;;29.55;;
48241;SDS011;34041;51.812;4.622;2024-03-06T04:44:55;34.43;;;28.70;;
48241;SDS011;34041;51.812;4.622;2024-03-06T04:47:55;40.35;;;30.33;;
48241;SDS011;34041;51.812;4.622;2024-03-06T04:50:55;36.40;;;29.50;;
48241;SDS011;34041;51.812;4.622;2024-03-06T04:53:56;36.22;;;29.13;;
48241;SDS011;34041;51.812;4.622;2024-03-06T04:56:56;34.70;;;28.60;;
48241;SDS011;34041;51.812;4.622;2024-03-06T04:59:56;35.90;;;29.80;;
48241;SDS011;34041;51.812;4.622;2024-03-06T05:02:58;41.80;;;30.92;;
48241;SDS011;34041;51.812;4.622;2024-03-06T05:05:58;38.90;;;32.25;;
48241;SDS011;34041;51.812;4.622;2024-03-06T05:08:59;39.80;;;31.50;;
48241;SDS011;34041;51.812;4.622;2024-03-06T05:11:59;41.23;;;29.30;;
48241;SDS011;34041;51.812;4.622;2024-03-06T05:14:59;38.75;;;29.63;;
48241;SDS011;34041;51.812;4.622;2024-03-06T05:18:00;36.17;;;28.17;;
48241;SDS011;34041;51.812;4.622;2024-03-06T05:21:00;43.88;;;31.85;;
48241;SDS011;34041;51.812;4.622;2024-03-06T05:24:01;37.55;;;30.23;;
48241;SDS011;34041;51.812;4.622;2024-03-06T05:27:01;37.55;;;29.13;;
48241;SDS011;34041;51.812;4.622;2024-03-06T05:30:01;31.05;;;26.83;;
48241;SDS011;34041;51.812;4.622;2024-03-06T05:33:04;36.58;;;29.65;;
48241;SDS011;34041;51.812;4.622;2024-03-06T05:36:04;36.10;;;28.48;;
48241;SDS011;34041;51.812;4.622;2024-03-06T05:39:05;32.65;;;27.08;;
48241;SDS011;34041;51.812;4.622;2024-03-06T05:42:07;33.60;;;25.83;;
48241;SDS011;34041;51.812;4.622;2024-03-06T05:45:07;41.30;;;28.80;;
48241;SDS011;34041;51.812;4.622;2024-03-06T05:48:10;36.53;;;27.95;;
48241;SDS011;34041;51.812;4.622;2024-03-06T05:51:10;36.47;;;28.83;;
48241;SDS011;34041;51.812;4.622;2024-03-06T05:54:11;34.40;;;27.97;;
48241;SDS011;34041;51.812;4.622;2024-03-06T05:57:11;35.75;;;28.40;;
48241;SDS011;34041;51.812;4.622;2024-03-06T06:00:11;37.42;;;29.65;;
48241;SDS011;34041;51.812;4.622;2024-03-06T06:03:12;36.72;;;27.40;;
48241;SDS011;34041;51.812;4.622;2024-03-06T06:06:14;33.28;;;27.58;;
48241;SDS011;34041;51.812;4.622;2024-03-06T06:09:14;36.70;;;27.92;;
48241;SDS011;34041;51.812;4.622;2024-03-06T06:12:15;35.63;;;27.75;;
48241;SDS011;34041;51.812;4.622;2024-03-06T06:15:16;35.80;;;28.43;;
48241;SDS011;34041;51.812;4.622;2024-03-06T06:18:16;44.35;;;32.67;;
48241;SDS011;34041;51.812;4.622;2024-03-06T06:21:16;35.78;;;28.33;;
48241;SDS011;34041;51.812;4.622;2024-03-06T06:24:16;37.72;;;29.90;;
48241;SDS011;34041;51.812;4.622;2024-03-06T06:27:16;35.30;;;28.17;;
48241;SDS011;34041;51.812;4.622;2024-03-06T06:30:17;37.87;;;28.33;;
48241;SDS011;34041;51.812;4.622;2024-03-06T06:33:20;35.15;;;27.85;;
48241;SDS011;34041;51.812;4.622;2024-03-06T06:36:21;36.08;;;28.25;;
48241;SDS011;34041;51.812;4.622;2024-03-06T06:39:21;37.05;;;28.40;;
48241;SDS011;34041;51.812;4.622;2024-03-06T06:42:22;33.53;;;29.15;;
48241;SDS011;34041;51.812;4.622;2024-03-06T06:45:22;34.15;;;27.40;;
48241;SDS011;34041;51.812;4.622;2024-03-06T06:48:22;33.65;;;29.60;;
48241;SDS011;34041;51.812;4.622;2024-03-06T06:51:22;34.00;;;27.98;;
48241;SDS011;34041;51.812;4.622;2024-03-06T06:54:23;33.67;;;27.63;;
48241;SDS011;34041;51.812;4.622;2024-03-06T06:57:23;34.77;;;25.87;;
48241;SDS011;34041;51.812;4.622;2024-03-06T07:00:24;32.58;;;26.52;;
48241;SDS011;34041;51.812;4.622;2024-03-06T07:03:25;33.03;;;26.33;;
48241;SDS011;34041;51.812;4.622;2024-03-06T07:06:29;31.23;;;25.88;;
48241;SDS011;34041;51.812;4.622;2024-03-06T07:09:29;30.10;;;26.75;;
48241;SDS011;34041;51.812;4.622;2024-03-06T07:12:30;31.80;;;27.45;;
48241;SDS011;34041;51.812;4.622;2024-03-06T07:15:31;30.50;;;25.33;;
48241;SDS011;34041;51.812;4.622;2024-03-06T07:18:31;27.00;;;22.65;;
48241;SDS011;34041;51.812;4.622;2024-03-06T07:21:31;26.90;;;22.83;;
48241;SDS011;34041;51.812;4.622;2024-03-06T07:24:31;24.23;;;21.37;;
48241;SDS011;34041;51.812;4.622;2024-03-06T07:27:32;25.90;;;22.50;;
48241;SDS011;34041;51.812;4.622;2024-03-06T07:30:32;22.10;;;19.63;;
48241;SDS011;34041;51.812;4.622;2024-03-06T07:33:32;24.60;;;20.20;;
48241;SDS011;34041;51.812;4.622;2024-03-06T07:36:34;24.80;;;20.08;;
48241;SDS011;34041;51.812;4.622;2024-03-06T07:39:35;19.05;;;16.92;;
48241;SDS011;34041;51.812;4.622;2024-03-06T07:42:35;18.33;;;16.48;;
48241;SDS011;34041;51.812;4.622;2024-03-06T07:45:35;20.08;;;17.65;;
48241;SDS011;34041;51.812;4.622;2024-03-06T07:48:41;20.37;;;17.13;;
48241;SDS011;34041;51.812;4.622;2024-03-06T07:51:42;19.13;;;16.92;;
48241;SDS011;34041;51.812;4.622;2024-03-06T07:54:42;20.07;;;16.33;;
48241;SDS011;34041;51.812;4.622;2024-03-06T07:57:43;18.57;;;15.30;;
48241;SDS011;34041;51.812;4.622;2024-03-06T08:00:43;17.87;;;16.00;;
48241;SDS011;34041;51.812;4.622;2024-03-06T08:03:43;17.97;;;15.67;;
48241;SDS011;34041;51.812;4.622;2024-03-06T08:06:44;21.88;;;15.27;;
48241;SDS011;34041;51.812;4.622;2024-03-06T08:09:44;17.50;;;15.73;;
48241;SDS011;34041;51.812;4.622;2024-03-06T08:12:44;16.87;;;15.13;;
48241;SDS011;34041;51.812;4.622;2024-03-06T08:15:45;18.05;;;16.13;;
48241;SDS011;34041;51.812;4.622;2024-03-06T08:18:46;16.67;;;15.05;;
48241;SDS011;34041;51.812;4.622;2024-03-06T08:21:46;17.77;;;15.27;;
48241;SDS011;34041;51.812;4.622;2024-03-06T08:24:46;17.50;;;15.15;;
48241;SDS011;34041;51.812;4.622;2024-03-06T08:27:46;17.57;;;15.40;;
48241;SDS011;34041;51.812;4.622;2024-03-06T08:30:47;18.03;;;15.80;;
48241;SDS011;34041;51.812;4.622;2024-03-06T08:33:47;17.93;;;15.60;;
48241;SDS011;34041;51.812;4.622;2024-03-06T08:36:47;17.58;;;14.30;;
48241;SDS011;34041;51.812;4.622;2024-03-06T08:39:47;17.33;;;15.40;;
48241;SDS011;34041;51.812;4.622;2024-03-06T08:42:48;18.23;;;15.35;;
48241;SDS011;34041;51.812;4.622;2024-03-06T08:45:49;19.83;;;16.10;;
48241;SDS011;34041;51.812;4.622;2024-03-06T08:48:49;18.03;;;14.97;;
48241;SDS011;34041;51.812;4.622;2024-03-06T08:51:49;21.00;;;16.33;;
48241;SDS011;34041;51.812;4.622;2024-03-06T08:54:49;17.30;;;15.50;;
48241;SDS011;34041;51.812;4.622;2024-03-06T08:57:50;16.33;;;13.30;;
48241;SDS011;34041;51.812;4.622;2024-03-06T09:00:50;15.73;;;14.23;;
48241;SDS011;34041;51.812;4.622;2024-03-06T09:03:50;15.57;;;14.02;;
48241;SDS011;34041;51.812;4.622;2024-03-06T09:06:50;19.85;;;15.15;;
48241;SDS011;34041;51.812;4.622;2024-03-06T09:09:51;16.60;;;14.68;;
48241;SDS011;34041;51.812;4.622;2024-03-06T09:12:54;14.93;;;13.18;;
48241;SDS011;34041;51.812;4.622;2024-03-06T09:15:54;17.20;;;14.40;;
48241;SDS011;34041;51.812;4.622;2024-03-06T09:18:55;15.57;;;13.98;;
48241;SDS011;34041;51.812;4.622;2024-03-06T09:21:55;18.47;;;14.53;;
48241;SDS011;34041;51.812;4.622;2024-03-06T09:24:56;15.98;;;13.13;;
48241;SDS011;34041;51.812;4.622;2024-03-06T09:27:56;12.80;;;11.50;;
48241;SDS011;34041;51.812;4.622;2024-03-06T09:30:57;13.55;;;11.18;;
48241;SDS011;34041;51.812;4.622;2024-03-06T09:33:57;13.73;;;11.97;;
48241;SDS011;34041;51.812;4.622;2024-03-06T09:36:57;11.97;;;10.77;;
48241;SDS011;34041;51.812;4.622;2024-03-06T09:39:57;16.07;;;12.23;;
48241;SDS011;34041;51.812;4.622;2024-03-06T09:42:57;13.60;;;10.17;;
48241;SDS011;34041;51.812;4.622;2024-03-06T09:45:58;11.95;;;9.80;;
48241;SDS011;34041;51.812;4.622;2024-03-06T09:48:58;10.57;;;9.48;;
48241;SDS011;34041;51.812;4.622;2024-03-06T09:51:59;12.77;;;10.20;;
48241;SDS011;34041;51.812;4.622;2024-03-06T09:55:00;10.35;;;8.60;;
48241;SDS011;34041;51.812;4.622;2024-03-06T09:58:00;9.55;;;8.60;;
48241;SDS011;34041;51.812;4.622;2024-03-06T10:01:03;10.00;;;9.05;;
48241;SDS011;34041;51.812;4.622;2024-03-06T10:04:26;11.27;;;9.15;;
48241;SDS011;34041;51.812;4.622;2024-03-06T10:07:26;9.35;;;7.68;;
48241;SDS011;34041;51.812;4.622;2024-03-06T10:10:27;8.02;;;7.03;;
48241;SDS011;34041;51.812;4.622;2024-03-06T10:13:27;7.73;;;6.93;;
48241;SDS011;34041;51.812;4.622;2024-03-06T10:16:28;8.82;;;6.80;;
48241;SDS011;34041;51.812;4.622;2024-03-06T10:19:29;10.27;;;7.60;;
48241;SDS011;34041;51.812;4.622;2024-03-06T10:22:29;8.27;;;7.20;;
48241;SDS011;34041;51.812;4.622;2024-03-06T10:25:29;7.47;;;6.77;;
48241;SDS011;34041;51.812;4.622;2024-03-06T10:28:30;6.80;;;5.53;;
48241;SDS011;34041;51.812;4.622;2024-03-06T10:31:32;7.78;;;5.25;;
48241;SDS011;34041;51.812;4.622;2024-03-06T10:34:36;5.28;;;4.55;;
48241;SDS011;34041;51.812;4.622;2024-03-06T10:40:38;5.25;;;4.75;;
48241;SDS011;34041;51.812;4.622;2024-03-06T10:43:38;6.97;;;6.00;;
48241;SDS011;34041;51.812;4.622;2024-03-06T10:46:40;8.32;;;6.90;;
48241;SDS011;34041;51.812;4.622;2024-03-06T10:49:45;7.88;;;7.05;;
48241;SDS011;34041;51.812;4.622;2024-03-06T10:52:46;9.02;;;8.13;;
48241;SDS011;34041;51.812;4.622;2024-03-06T10:55:47;8.45;;;7.40;;
48241;SDS011;34041;51.812;4.622;2024-03-06T10:58:50;10.18;;;8.15;;
48241;SDS011;34041;51.812;4.622;2024-03-06T11:01:51;9.85;;;8.85;;
48241;SDS011;34041;51.812;4.622;2024-03-06T11:04:52;10.73;;;9.63;;
48241;SDS011;34041;51.812;4.622;2024-03-06T11:07:55;10.98;;;8.20;;
48241;SDS011;34041;51.812;4.622;2024-03-06T11:11:02;9.43;;;7.30;;
48241;SDS011;34041;51.812;4.622;2024-03-06T11:14:15;11.18;;;8.50;;
48241;SDS011;34041;51.812;4.622;2024-03-06T11:17:16;11.27;;;8.45;;
48241;SDS011;34041;51.812;4.622;2024-03-06T11:20:17;9.57;;;8.57;;
48241;SDS011;34041;51.812;4.622;2024-03-06T11:23:17;9.57;;;7.57;;
48241;SDS011;34041;51.812;4.622;2024-03-06T11:26:18;12.10;;;10.27;;
48241;SDS011;34041;51.812;4.622;2024-03-06T11:29:20;8.85;;;7.75;;
48241;SDS011;34041;51.812;4.622;2024-03-06T11:32:20;9.05;;;6.72;;
48241;SDS011;34041;51.812;4.622;2024-03-06T11:35:22;8.80;;;7.68;;
48241;SDS011;34041;51.812;4.622;2024-03-06T11:38:22;12.10;;;8.75;;
48241;SDS011;34041;51.812;4.622;2024-03-06T11:41:25;10.38;;;7.38;;
48241;SDS011;34041;51.812;4.622;2024-03-06T11:44:26;9.93;;;8.13;;
48241;SDS011;34041;51.812;4.622;2024-03-06T11:47:26;11.15;;;7.93;;
48241;SDS011;34041;51.812;4.622;2024-03-06T11:50:27;8.53;;;7.63;;
48241;SDS011;34041;51.812;4.622;2024-03-06T11:56:31;9.70;;;8.63;;
48241;SDS011;34041;51.812;4.622;2024-03-06T11:59:35;9.83;;;7.07;;
48241;SDS011;34041;51.812;4.622;2024-03-06T12:02:38;11.07;;;7.57;;
48241;SDS011;34041;51.812;4.622;2024-03-06T12:05:38;10.98;;;7.45;;
48241;SDS011;34041;51.812;4.622;2024-03-06T12:08:39;8.77;;;7.43;;
48241;SDS011;34041;51.812;4.622;2024-03-06T12:11:39;9.52;;;8.38;;
48241;SDS011;34041;51.812;4.622;2024-03-06T12:14:39;8.00;;;6.53;;
48241;SDS011;34041;51.812;4.622;2024-03-06T12:17:46;7.47;;;6.60;;
48241;SDS011;34041;51.812;4.622;2024-03-06T12:20:49;10.82;;;6.70;;
48241;SDS011;34041;51.812;4.622;2024-03-06T12:23:50;8.82;;;6.78;;
48241;SDS011;34041;51.812;4.622;2024-03-06T12:26:59;8.90;;;7.47;;
48241;SDS011;34041;51.812;4.622;2024-03-06T12:29:59;11.40;;;7.70;;
48241;SDS011;34041;51.812;4.622;2024-03-06T12:33:00;8.97;;;6.27;;
48241;SDS011;34041;51.812;4.622;2024-03-06T12:36:07;12.02;;;7.35;;
48241;SDS011;34041;51.812;4.622;2024-03-06T12:39:10;12.73;;;7.82;;
48241;SDS011;34041;51.812;4.622;2024-03-06T12:42:13;9.15;;;8.18;;
48241;SDS011;34041;51.812;4.622;2024-03-06T12:45:13;9.17;;;7.20;;
48241;SDS011;34041;51.812;4.622;2024-03-06T12:48:13;9.02;;;7.53;;
48241;SDS011;34041;51.812;4.622;2024-03-06T12:51:13;7.83;;;6.47;;
48241;SDS011;34041;51.812;4.622;2024-03-06T12:54:14;6.80;;;5.70;;
48241;SDS011;34041;51.812;4.622;2024-03-06T12:57:14;6.83;;;5.47;;
48241;SDS011;34041;51.812;4.622;2024-03-06T13:00:14;6.75;;;5.18;;
48241;SDS011;34041;51.812;4.622;2024-03-06T13:03:18;8.73;;;5.75;;
48241;SDS011;34041;51.812;4.622;2024-03-06T13:06:18;8.30;;;5.97;;
48241;SDS011;34041;51.812;4.622;2024-03-06T13:09:19;8.23;;;6.45;;
48241;SDS011;34041;51.812;4.622;2024-03-06T13:12:19;8.03;;;6.43;;
48241;SDS011;34041;51.812;4.622;2024-03-06T13:15:19;9.18;;;6.85;;
48241;SDS011;34041;51.812;4.622;2024-03-06T13:18:19;7.40;;;5.43;;
48241;SDS011;34041;51.812;4.622;2024-03-06T13:21:20;8.20;;;6.15;;
48241;SDS011;34041;51.812;4.622;2024-03-06T13:24:20;5.32;;;4.75;;
48241;SDS011;34041;51.812;4.622;2024-03-06T13:27:20;7.15;;;5.45;;
48241;SDS011;34041;51.812;4.622;2024-03-06T13:30:21;9.20;;;5.30;;
48241;SDS011;34041;51.812;4.622;2024-03-06T13:33:21;9.13;;;5.53;;
48241;SDS011;34041;51.812;4.622;2024-03-06T13:36:21;8.57;;;6.13;;
48241;SDS011;34041;51.812;4.622;2024-03-06T13:39:22;7.88;;;4.80;;
48241;SDS011;34041;51.812;4.622;2024-03-06T13:42:22;8.30;;;6.20;;
48241;SDS011;34041;51.812;4.622;2024-03-06T13:45:22;6.67;;;6.00;;
48241;SDS011;34041;51.812;4.622;2024-03-06T13:48:23;8.02;;;5.57;;
48241;SDS011;34041;51.812;4.622;2024-03-06T13:51:23;7.30;;;5.72;;
48241;SDS011;34041;51.812;4.622;2024-03-06T13:54:23;5.67;;;5.07;;
48241;SDS011;34041;51.812;4.622;2024-03-06T13:57:24;6.23;;;5.50;;
48241;SDS011;34041;51.812;4.622;2024-03-06T14:00:24;6.72;;;5.20;;
48241;SDS011;34041;51.812;4.622;2024-03-06T14:03:25;6.70;;;5.78;;
48241;SDS011;34041;51.812;4.622;2024-03-06T14:06:25;6.63;;;5.50;;
48241;SDS011;34041;51.812;4.622;2024-03-06T14:09:26;5.53;;;4.77;;
48241;SDS011;34041;51.812;4.622;2024-03-06T14:12:26;8.25;;;6.22;;
48241;SDS011;34041;51.812;4.622;2024-03-06T14:15:27;6.90;;;5.57;;
48241;SDS011;34041;51.812;4.622;2024-03-06T14:18:27;8.50;;;5.77;;
48241;SDS011;34041;51.812;4.622;2024-03-06T14:21:27;5.73;;;5.13;;
48241;SDS011;34041;51.812;4.622;2024-03-06T14:24:27;6.90;;;4.37;;
48241;SDS011;34041;51.812;4.622;2024-03-06T14:27:27;5.40;;;3.97;;
48241;SDS011;34041;51.812;4.622;2024-03-06T14:30:28;5.53;;;4.40;;
48241;SDS011;34041;51.812;4.622;2024-03-06T14:33:28;10.10;;;5.03;;
48241;SDS011;34041;51.812;4.622;2024-03-06T14:36:28;4.33;;;3.23;;
48241;SDS011;34041;51.812;4.622;2024-03-06T14:39:28;6.25;;;3.58;;
48241;SDS011;34041;51.812;4.622;2024-03-06T14:42:29;5.03;;;3.53;;
48241;SDS011;34041;51.812;4.622;2024-03-06T14:45:29;4.30;;;3.47;;
48241;SDS011;34041;51.812;4.622;2024-03-06T14:48:29;5.03;;;3.63;;
48241;SDS011;34041;51.812;4.622;2024-03-06T14:51:29;5.47;;;4.27;;
48241;SDS011;34041;51.812;4.622;2024-03-06T14:54:29;6.57;;;4.03;;
48241;SDS011;34041;51.812;4.622;2024-03-06T14:57:30;5.70;;;3.67;;
48241;SDS011;34041;51.812;4.622;2024-03-06T15:00:30;6.05;;;4.10;;
48241;SDS011;34041;51.812;4.622;2024-03-06T15:03:31;5.00;;;3.60;;
48241;SDS011;34041;51.812;4.622;2024-03-06T15:06:31;5.85;;;4.50;;
48241;SDS011;34041;51.812;4.622;2024-03-06T15:09:32;4.68;;;4.25;;
48241;SDS011;34041;51.812;4.622;2024-03-06T15:12:32;5.28;;;3.90;;
48241;SDS011;34041;51.812;4.622;2024-03-06T15:15:32;5.67;;;4.27;;
48241;SDS011;34041;51.812;4.622;2024-03-06T15:18:32;5.37;;;4.83;;
48241;SDS011;34041;51.812;4.622;2024-03-06T15:21:33;5.72;;;5.15;;
48241;SDS011;34041;51.812;4.622;2024-03-06T15:24:34;8.93;;;5.55;;
48241;SDS011;34041;51.812;4.622;2024-03-06T15:27:34;5.00;;;4.22;;
48241;SDS011;34041;51.812;4.622;2024-03-06T15:30:35;6.53;;;5.30;;
48241;SDS011;34041;51.812;4.622;2024-03-06T15:33:37;8.70;;;7.68;;
48241;SDS011;34041;51.812;4.622;2024-03-06T15:36:37;11.98;;;9.57;;
48241;SDS011;34041;51.812;4.622;2024-03-06T15:39:37;11.25;;;9.02;;
48241;SDS011;34041;51.812;4.622;2024-03-06T15:42:38;8.75;;;7.72;;
48241;SDS011;34041;51.812;4.622;2024-03-06T15:45:38;8.00;;;7.20;;
48241;SDS011;34041;51.812;4.622;2024-03-06T15:48:38;13.75;;;8.82;;
48241;SDS011;34041;51.812;4.622;2024-03-06T15:51:38;11.13;;;7.63;;
48241;SDS011;34041;51.812;4.622;2024-03-06T15:54:39;11.80;;;8.40;;
48241;SDS011;34041;51.812;4.622;2024-03-06T15:57:40;12.77;;;10.55;;
48241;SDS011;34041;51.812;4.622;2024-03-06T16:00:40;12.60;;;10.18;;
48241;SDS011;34041;51.812;4.622;2024-03-06T16:03:40;15.03;;;11.70;;
48241;SDS011;34041;51.812;4.622;2024-03-06T16:06:40;14.63;;;12.77;;
48241;SDS011;34041;51.812;4.622;2024-03-06T16:09:41;14.82;;;10.88;;
48241;SDS011;34041;51.812;4.622;2024-03-06T16:12:41;17.20;;;12.88;;
48241;SDS011;34041;51.812;4.622;2024-03-06T16:15:41;14.30;;;12.27;;
48241;SDS011;34041;51.812;4.622;2024-03-06T16:18:43;13.85;;;12.32;;
48241;SDS011;34041;51.812;4.622;2024-03-06T16:21:43;16.23;;;13.32;;
48241;SDS011;34041;51.812;4.622;2024-03-06T16:24:43;12.90;;;11.30;;
48241;SDS011;34041;51.812;4.622;2024-03-06T16:27:44;13.95;;;11.60;;
48241;SDS011;34041;51.812;4.622;2024-03-06T16:30:45;13.25;;;11.23;;
48241;SDS011;34041;51.812;4.622;2024-03-06T16:33:46;13.70;;;11.25;;
48241;SDS011;34041;51.812;4.622;2024-03-06T16:36:46;12.40;;;10.68;;
48241;SDS011;34041;51.812;4.622;2024-03-06T16:39:47;14.40;;;10.98;;
48241;SDS011;34041;51.812;4.622;2024-03-06T16:42:47;14.63;;;10.65;;
48241;SDS011;34041;51.812;4.622;2024-03-06T16:45:48;14.32;;;11.13;;
48241;SDS011;34041;51.812;4.622;2024-03-06T16:48:48;14.40;;;11.43;;
48241;SDS011;34041;51.812;4.622;2024-03-06T16:51:48;14.93;;;11.85;;
48241;SDS011;34041;51.812;4.622;2024-03-06T16:54:48;13.80;;;11.43;;
48241;SDS011;34041;51.812;4.622;2024-03-06T16:57:49;14.05;;;11.95;;
48241;SDS011;34041;51.812;4.622;2024-03-06T17:00:49;15.10;;;13.13;;
48241;SDS011;34041;51.812;4.622;2024-03-06T17:03:50;15.40;;;12.25;;
48241;SDS011;34041;51.812;4.622;2024-03-06T17:06:50;14.32;;;11.63;;
48241;SDS011;34041;51.812;4.622;2024-03-06T17:09:51;16.02;;;13.35;;
48241;SDS011;34041;51.812;4.622;2024-03-06T17:12:51;18.52;;;13.95;;
48241;SDS011;34041;51.812;4.622;2024-03-06T17:15:54;15.45;;;11.68;;
48241;SDS011;34041;51.812;4.622;2024-03-06T17:18:54;16.70;;;11.73;;
48241;SDS011;34041;51.812;4.622;2024-03-06T17:21:55;12.67;;;11.33;;
48241;SDS011;34041;51.812;4.622;2024-03-06T17:24:56;13.80;;;12.10;;
48241;SDS011;34041;51.812;4.622;2024-03-06T17:27:56;14.43;;;12.87;;
48241;SDS011;34041;51.812;4.622;2024-03-06T17:30:57;14.50;;;12.15;;
48241;SDS011;34041;51.812;4.622;2024-03-06T17:33:58;16.42;;;11.90;;
48241;SDS011;34041;51.812;4.622;2024-03-06T17:36:59;14.70;;;12.63;;
48241;SDS011;34041;51.812;4.622;2024-03-06T17:40:00;14.23;;;12.60;;
48241;SDS011;34041;51.812;4.622;2024-03-06T17:43:00;14.63;;;11.70;;
48241;SDS011;34041;51.812;4.622;2024-03-06T17:46:00;15.67;;;12.33;;
48241;SDS011;34041;51.812;4.622;2024-03-06T17:49:01;15.52;;;12.23;;
48241;SDS011;34041;51.812;4.622;2024-03-06T17:52:01;16.75;;;13.10;;